Skip Navigation

Christman Field Latest Observations

Switch to english unitsOther observation timesWeekly graphs

Date Time
MST
Temp
°C
RH
%
DewPt
°C
Wind
m/s
Dir
°
Gust
m/s
Dir
°
Press
hPa
Solar
W/m^2
Prec
mm
2020-08-03 13:40 28.0 37.0 12.0 4.2 110 6.2 152 844.46 799.2 0.00
2020-08-03 13:35 27.8 36.2 11.5 4.2 98 6.3 116 844.50 809.0 0.00
2020-08-03 13:30 27.8 34.6 10.7 4.3 111 5.4 129 844.65 822.0 0.00
2020-08-03 13:25 28.0 35.0 11.1 3.8 122 6.2 126 844.83 810.0 0.00
2020-08-03 13:20 27.8 38.0 12.2 3.9 114 5.4 134 844.93 831.0 0.00
2020-08-03 13:15 27.3 36.3 11.0 3.6 149 5.5 127 845.01 822.0 0.00
2020-08-03 13:10 26.6 40.3 12.0 3.5 133 5.4 133 845.05 593.1 0.00
2020-08-03 13:05 27.1 40.6 12.6 3.1 85 4.9 134 844.94 204.0 0.00
2020-08-03 13:00 27.4 36.6 11.3 4.0 139 6.2 147 844.94 492.2 0.00
2020-08-03 12:55 27.4 39.9 12.5 2.6 108 6.2 114 845.06 569.5 0.00
2020-08-03 12:50 27.6 38.0 12.0 3.7 164 5.3 137 845.12 769.7 0.00
2020-08-03 12:45 27.6 38.7 12.3 4.1 146 5.7 78 845.17 897.0 0.00
2020-08-03 12:40 27.1 40.0 12.3 3.1 102 5.3 154 845.20 884.0 0.00
2020-08-03 12:35 27.3 40.9 12.8 2.9 86 5.2 101 845.31 863.0 0.00
2020-08-03 12:30 26.8 40.3 12.2 3.3 153 5.4 90 845.36 846.0 0.00
2020-08-03 12:25 26.4 42.3 12.6 3.0 113 4.9 143 845.36 838.0 0.00
2020-08-03 12:20 26.7 42.9 13.0 3.1 123 5.8 97 845.42 830.0 0.00
2020-08-03 12:15 26.4 42.3 12.6 3.4 111 5.6 141 845.43 855.0 0.00
2020-08-03 12:10 26.6 44.0 13.3 3.1 113 4.1 114 845.48 851.0 0.00
2020-08-03 12:05 26.3 43.0 12.7 2.7 112 5.1 112 845.53 848.0 0.00
2020-08-03 12:00 26.3 41.5 12.2 2.2 148 4.6 141 845.62 813.0 0.00
2020-08-03 11:55 25.5 44.5 12.5 2.2 95 3.9 124 845.77 845.0 0.00
2020-08-03 11:50 25.9 44.0 12.7 3.2 120 5.0 140 845.87 839.0 0.00
2020-08-03 11:45 25.2 46.7 13.0 1.8 140 3.2 80 845.87 838.0 0.00
2020-08-03 11:40 24.8 46.0 12.4 2.2 116 3.6 125 845.89 805.0 0.00
2020-08-03 11:35 24.7 46.7 12.6 1.7 122 3.5 127 845.99 820.0 0.00
2020-08-03 11:30 24.8 47.0 12.7 2.5 135 3.3 71 846.05 805.0 0.00
2020-08-03 11:25 24.8 47.4 12.8 1.8 122 3.4 111 846.10 775.1 0.00
2020-08-03 11:20 24.2 49.0 12.8 1.8 8 3.4 23 846.12 659.3 0.00
2020-08-03 11:15 24.1 48.1 12.5 1.3 142 3.5 35 846.15 734.1 0.00